createdAt,value
2023-01-07T00:01:32.081Z,5.40
2023-01-07T00:03:59.189Z,5.27
2023-01-07T00:06:25.850Z,5.03
2023-01-07T00:08:52.980Z,4.70
2023-01-07T00:11:20.601Z,5.37
2023-01-07T00:13:48.449Z,5.17
2023-01-07T00:19:01.177Z,5.63
2023-01-07T00:24:12.173Z,4.33
2023-01-07T00:26:38.991Z,4.60
2023-01-07T00:29:06.139Z,4.97
2023-01-07T00:31:33.799Z,5.50
2023-01-07T00:34:00.559Z,4.53
2023-01-07T00:36:30.953Z,5.97
2023-01-07T00:38:58.863Z,5.20
2023-01-07T00:44:10.286Z,4.60
2023-01-07T00:49:24.580Z,4.53
2023-01-07T00:54:35.600Z,4.97
2023-01-07T00:59:47.112Z,5.13
2023-01-07T01:04:57.931Z,7.00
2023-01-07T01:07:24.518Z,7.90
2023-01-07T01:09:51.202Z,7.00
2023-01-07T01:12:17.803Z,7.40
2023-01-07T01:14:44.436Z,7.17
2023-01-07T01:17:11.006Z,7.80
2023-01-07T01:19:37.712Z,7.93
2023-01-07T01:22:04.306Z,7.90
2023-01-07T01:24:31.024Z,7.60
2023-01-07T01:26:57.900Z,7.23
2023-01-07T01:29:24.718Z,8.20
2023-01-07T01:31:51.689Z,7.77
2023-01-07T01:34:18.361Z,7.30
2023-01-07T01:36:45.108Z,7.90
2023-01-07T01:39:12.165Z,6.80
2023-01-07T01:41:39.174Z,7.23
2023-01-07T02:16:07.585Z,7.50
2023-01-07T02:18:38.028Z,7.47
2023-01-07T02:24:15.439Z,6.97
2023-01-07T02:27:00.736Z,6.60
2023-01-07T02:29:28.227Z,7.40
2023-01-07T02:32:14.059Z,8.30
2023-01-07T02:34:47.043Z,7.97
2023-01-07T02:37:15.071Z,6.97
2023-01-07T02:39:45.837Z,7.47
2023-01-07T02:42:25.079Z,7.50
2023-01-07T02:44:54.298Z,7.93
2023-01-07T02:47:20.920Z,7.70
2023-01-07T02:52:32.592Z,7.47
2023-01-07T02:54:59.286Z,6.47
2023-01-07T02:57:26.073Z,7.20
2023-01-07T02:59:52.663Z,8.03
2023-01-07T03:02:37.734Z,7.70
2023-01-07T03:05:24.669Z,7.37
2023-01-07T03:10:48.520Z,8.00
2023-01-07T03:13:19.908Z,7.40
2023-01-07T03:15:50.897Z,8.17
2023-01-07T03:18:22.429Z,6.77
2023-01-07T03:20:49.966Z,7.90
2023-01-07T03:23:16.993Z,7.00
2023-01-07T03:25:44.539Z,6.97
2023-01-07T03:28:11.480Z,7.00
2023-01-07T03:30:38.454Z,7.03
2023-01-07T03:33:07.374Z,7.73
2023-01-07T03:35:34.266Z,6.77
2023-01-07T03:38:01.905Z,7.17
2023-01-07T03:40:29.157Z,7.33
2023-01-07T03:42:55.764Z,6.43
2023-01-07T03:45:24.144Z,6.40
2023-01-07T03:50:38.609Z,6.43
2023-01-07T03:53:06.195Z,7.07
2023-01-07T03:55:35.430Z,8.13
2023-01-07T03:58:02.050Z,7.60
2023-01-07T04:00:29.094Z,8.40
2023-01-07T04:03:03.959Z,7.73
2023-01-07T04:05:35.939Z,7.50
2023-01-07T04:08:02.615Z,8.10
2023-01-07T04:10:33.304Z,8.50
2023-01-07T04:13:00.073Z,7.83
2023-01-07T04:15:26.697Z,7.53
2023-01-07T04:17:53.463Z,7.83
2023-01-07T04:20:20.282Z,7.87
2023-01-07T04:22:46.982Z,7.30
2023-01-07T04:25:13.920Z,7.27
2023-01-07T04:27:40.863Z,8.27
2023-01-07T04:30:07.979Z,7.70
2023-01-07T04:32:34.779Z,7.70
2023-01-07T04:35:01.777Z,8.70
2023-01-07T04:37:29.661Z,7.97
2023-01-07T04:39:56.300Z,8.40
2023-01-07T04:45:09.179Z,7.83
2023-01-07T04:47:36.005Z,7.73
2023-01-07T04:50:03.726Z,8.10
2023-01-07T04:52:32.516Z,7.53
2023-01-07T04:54:59.321Z,8.57
2023-01-07T04:57:25.891Z,8.80
2023-01-07T04:59:53.285Z,7.10
2023-01-07T05:02:19.907Z,7.40
2023-01-07T05:04:47.588Z,6.63
2023-01-07T05:07:15.213Z,7.07
2023-01-07T05:09:42.153Z,5.83
2023-01-07T05:12:08.778Z,6.60
2023-01-07T05:14:35.517Z,5.90
2023-01-07T05:17:02.183Z,5.37
2023-01-07T05:19:30.410Z,5.93
2023-01-07T05:22:00.191Z,6.00
2023-01-07T05:27:11.969Z,6.63
2023-01-07T05:29:39.185Z,6.43
2023-01-07T05:32:05.929Z,7.20
2023-01-07T05:34:33.912Z,6.87
2023-01-07T05:37:00.686Z,6.40
2023-01-07T05:39:28.409Z,6.90
2023-01-07T05:41:55.449Z,6.00
2023-01-07T05:44:24.152Z,5.90
2023-01-07T05:46:50.770Z,7.00
2023-01-07T05:49:17.321Z,6.30
2023-01-07T05:54:28.107Z,6.53
2023-01-07T05:56:54.753Z,7.50
2023-01-07T05:59:21.566Z,7.10
2023-01-07T06:01:48.270Z,7.43
2023-01-07T06:06:59.865Z,7.97
2023-01-07T06:12:10.478Z,7.03
2023-01-07T06:14:37.081Z,7.47
2023-01-07T06:17:03.688Z,6.80
2023-01-07T06:19:30.325Z,7.07
2023-01-07T06:24:41.003Z,6.60
2023-01-07T06:27:07.958Z,5.80
2023-01-07T06:29:34.747Z,6.20
2023-01-07T06:32:01.366Z,5.67
2023-01-07T06:34:28.024Z,5.63
2023-01-07T06:36:54.912Z,8.77
2023-01-07T06:39:21.591Z,9.13
2023-01-07T06:44:32.817Z,7.87
2023-01-07T06:46:59.439Z,9.10
2023-01-07T06:49:27.028Z,5.90
2023-01-07T06:51:53.733Z,5.60
2023-01-07T06:54:20.478Z,8.10
2023-01-07T06:56:47.128Z,8.10
2023-01-07T06:59:14.069Z,8.30
2023-01-07T07:01:40.960Z,9.73
2023-01-07T07:04:07.877Z,9.20
2023-01-07T07:06:34.457Z,9.80
2023-01-07T07:09:01.170Z,9.23
2023-01-07T07:11:27.780Z,9.07
2023-01-07T07:13:54.515Z,7.53
2023-01-07T07:16:22.679Z,7.03
2023-01-07T07:18:49.625Z,7.17
2023-01-07T07:21:16.190Z,6.67
2023-01-07T07:26:27.399Z,6.53
2023-01-07T07:31:38.415Z,5.23
2023-01-07T07:34:05.097Z,6.53
2023-01-07T07:36:31.760Z,6.33
2023-01-07T07:38:58.318Z,6.37
2023-01-07T07:41:25.053Z,6.80
2023-01-07T07:43:51.604Z,6.93
2023-01-07T07:46:18.320Z,7.00
2023-01-07T07:51:29.478Z,7.17
2023-01-07T07:53:56.130Z,6.90
2023-01-07T07:56:22.808Z,8.07
2023-01-07T07:58:49.424Z,8.57
2023-01-07T08:01:16.189Z,8.30
2023-01-07T08:03:43.050Z,9.27
2023-01-07T08:06:09.959Z,10.10
2023-01-07T08:11:21.423Z,10.10
2023-01-07T08:13:48.760Z,8.80
2023-01-07T08:16:15.541Z,7.77
2023-01-07T08:18:42.732Z,7.63
2023-01-07T08:21:09.669Z,7.87
2023-01-07T08:23:36.363Z,7.40
2023-01-07T08:26:03.289Z,7.73
2023-01-07T08:28:30.830Z,9.23
2023-01-07T08:30:58.160Z,8.40
2023-01-07T08:33:24.956Z,9.47
2023-01-07T08:35:51.751Z,9.90
2023-01-07T08:38:18.449Z,10.50
2023-01-07T08:40:45.277Z,10.87
2023-01-07T08:43:12.520Z,10.90
2023-01-07T08:45:39.376Z,10.43
2023-01-07T08:48:06.156Z,11.43
2023-01-07T08:50:32.981Z,10.90
2023-01-07T08:52:59.629Z,10.67
2023-01-07T08:55:26.373Z,10.60
2023-01-07T09:00:37.487Z,9.93
2023-01-07T09:03:04.400Z,9.20
2023-01-07T09:05:33.406Z,10.03
2023-01-07T09:08:03.795Z,10.43
2023-01-07T09:10:30.626Z,10.40
2023-01-07T09:12:57.367Z,10.17
2023-01-07T09:15:24.404Z,10.90
2023-01-07T09:17:51.138Z,11.67
2023-01-07T09:20:17.777Z,12.97
2023-01-07T09:22:44.487Z,13.17
2023-01-07T09:25:11.257Z,14.90
2023-01-07T09:27:38.061Z,13.60
2023-01-07T09:30:06.142Z,12.47
2023-01-07T09:32:32.936Z,12.77
2023-01-07T09:34:59.611Z,12.60
2023-01-07T09:37:26.436Z,13.40
2023-01-07T09:39:53.104Z,13.40
2023-01-07T09:42:38.411Z,12.93
2023-01-07T09:45:19.350Z,12.63
2023-01-07T09:47:47.027Z,13.53
2023-01-07T09:50:20.125Z,13.90
2023-01-07T09:52:47.959Z,13.90
2023-01-07T09:55:17.709Z,13.03
2023-01-07T09:57:44.478Z,12.50
2023-01-07T10:00:17.895Z,11.23
2023-01-07T10:02:46.456Z,12.77
2023-01-07T10:08:45.133Z,10.80
2023-01-07T10:11:18.068Z,11.47
2023-01-07T10:13:48.662Z,11.13
2023-01-07T10:16:21.608Z,11.13
2023-01-07T10:19:06.940Z,10.73
2023-01-07T10:21:38.850Z,12.00
2023-01-07T10:24:10.094Z,13.30
2023-01-07T10:26:38.685Z,13.70
2023-01-07T10:29:11.526Z,15.53
2023-01-07T10:31:38.460Z,17.83
2023-01-07T10:34:06.884Z,16.90
2023-01-07T10:36:35.080Z,16.57
2023-01-07T10:39:11.200Z,14.93
2023-01-07T10:41:41.222Z,15.23
2023-01-07T10:44:07.995Z,15.20
2023-01-07T10:46:44.328Z,14.87
2023-01-07T10:49:11.822Z,15.80
2023-01-07T10:51:46.314Z,14.93
2023-01-07T10:54:13.279Z,14.20
2023-01-07T10:56:47.149Z,13.87
2023-01-07T10:59:33.949Z,12.40
2023-01-07T11:04:46.069Z,13.97
2023-01-07T11:07:22.387Z,14.10
2023-01-07T11:09:49.657Z,13.60
2023-01-07T11:12:19.007Z,13.73
2023-01-07T11:14:48.986Z,14.93
2023-01-07T11:17:16.128Z,13.97
2023-01-07T11:19:51.570Z,13.37
2023-01-07T11:22:28.972Z,13.33
2023-01-07T11:24:58.957Z,12.60
2023-01-07T11:27:26.180Z,13.60
2023-01-07T11:30:05.472Z,14.40
2023-01-07T11:32:33.257Z,13.07
2023-01-07T11:35:01.059Z,12.90
2023-01-07T11:37:38.507Z,12.27
2023-01-07T11:40:20.478Z,13.03
2023-01-07T11:42:51.661Z,13.17
2023-01-07T11:45:18.421Z,14.17
2023-01-07T11:48:04.633Z,12.60
2023-01-07T11:50:34.034Z,13.53
2023-01-07T11:53:06.783Z,14.87
2023-01-07T11:55:35.902Z,14.97
2023-01-07T11:58:28.861Z,14.73
2023-01-07T12:01:07.931Z,15.67
2023-01-07T12:03:35.318Z,15.60
2023-01-07T12:09:00.201Z,15.83
2023-01-07T12:11:31.153Z,15.90
2023-01-07T12:13:57.977Z,17.40
2023-01-07T12:16:31.094Z,16.27
2023-01-07T12:19:01.113Z,16.63
2023-01-07T12:21:35.789Z,17.97
2023-01-07T12:24:02.840Z,19.13
2023-01-07T12:26:31.685Z,18.33
2023-01-07T12:28:58.823Z,18.90
2023-01-07T12:31:27.574Z,18.00
2023-01-07T12:33:58.279Z,18.50
2023-01-07T12:36:28.106Z,17.97
2023-01-07T12:38:55.545Z,21.80
2023-01-07T12:41:31.068Z,23.10
2023-01-07T12:43:58.381Z,23.07
2023-01-07T12:46:25.149Z,20.50
2023-01-07T12:48:57.994Z,23.70
2023-01-07T12:51:29.053Z,22.67
2023-01-07T12:53:56.854Z,20.00
2023-01-07T12:56:24.296Z,19.63
2023-01-07T12:58:52.435Z,24.00
2023-01-07T13:01:48.708Z,21.80
2023-01-07T13:04:50.891Z,21.60
2023-01-07T13:10:12.667Z,18.70
2023-01-07T13:12:43.389Z,16.20
2023-01-07T13:15:12.852Z,17.63
2023-01-07T13:17:40.850Z,17.10
2023-01-07T13:20:11.994Z,15.93
2023-01-07T13:22:41.767Z,15.10
2023-01-07T13:25:29.530Z,14.73
2023-01-07T13:28:08.183Z,20.40
2023-01-07T13:30:40.283Z,20.57
2023-01-07T13:33:25.840Z,19.90
2023-01-07T13:38:54.406Z,19.63
2023-01-07T13:41:32.989Z,19.87
2023-01-07T13:44:15.590Z,22.07
2023-01-07T13:46:43.089Z,17.43
2023-01-07T13:49:26.276Z,18.83
2023-01-07T13:54:49.402Z,18.87
2023-01-07T13:57:31.663Z,22.13
2023-01-07T13:59:59.522Z,20.83
2023-01-07T14:02:26.838Z,22.43
2023-01-07T14:08:10.467Z,19.67
2023-01-07T14:10:37.283Z,19.30
2023-01-07T14:13:07.177Z,19.70
2023-01-07T14:18:50.977Z,18.23
2023-01-07T14:21:47.178Z,18.50
2023-01-07T14:24:26.589Z,34.50
2023-01-07T14:27:05.685Z,29.20
2023-01-07T14:29:44.963Z,31.07
2023-01-07T14:32:23.980Z,30.80
2023-01-07T14:34:54.694Z,26.40
2023-01-07T14:40:25.778Z,37.20
2023-01-07T14:42:56.036Z,35.13
2023-01-07T14:45:41.051Z,31.37
2023-01-07T14:51:11.223Z,31.43
2023-01-07T14:53:57.294Z,32.20
2023-01-07T14:56:30.333Z,29.50
2023-01-07T15:02:16.366Z,28.00
2023-01-07T15:05:04.773Z,25.60
2023-01-07T15:07:32.728Z,22.47
2023-01-07T15:13:25.707Z,24.33
2023-01-07T15:16:02.132Z,24.33
2023-01-07T15:18:32.361Z,23.20
2023-01-07T15:20:59.012Z,20.63
2023-01-07T15:26:28.662Z,22.67
2023-01-07T15:29:14.199Z,22.37
2023-01-07T15:31:59.712Z,25.50
2023-01-07T15:37:13.981Z,24.60
2023-01-07T15:42:32.966Z,27.10
2023-01-07T15:47:45.307Z,24.73
2023-01-07T15:50:32.232Z,26.67
2023-01-07T15:53:03.780Z,24.30
2023-01-07T15:55:37.368Z,24.50
2023-01-07T15:58:05.170Z,24.40
2023-01-07T16:00:31.972Z,25.63
2023-01-07T16:02:59.157Z,30.13
2023-01-07T16:05:26.502Z,24.43
2023-01-07T16:07:56.820Z,26.43
2023-01-07T16:10:27.383Z,22.93
2023-01-07T16:12:55.184Z,23.73
2023-01-07T16:15:21.827Z,24.00
2023-01-07T16:20:38.019Z,24.73
2023-01-07T16:23:04.770Z,23.90
2023-01-07T16:25:33.557Z,23.47
2023-01-07T16:28:02.986Z,23.30
2023-01-07T16:30:29.720Z,22.03
2023-01-07T16:32:56.332Z,21.03
2023-01-07T16:35:29.777Z,23.60
2023-01-07T16:37:56.457Z,24.00
2023-01-07T16:40:25.883Z,22.27
2023-01-07T16:42:52.767Z,22.30
2023-01-07T16:45:39.632Z,21.03
2023-01-07T16:50:56.684Z,20.47
2023-01-07T16:53:24.564Z,22.30
2023-01-07T16:55:55.132Z,24.07
2023-01-07T16:58:25.743Z,24.00
2023-01-07T17:00:53.657Z,23.53
2023-01-07T17:03:20.977Z,24.47
2023-01-07T17:06:07.342Z,23.63
2023-01-07T17:08:34.335Z,21.90
2023-01-07T17:11:06.016Z,18.43
2023-01-07T17:16:34.148Z,15.50
2023-01-07T17:19:20.933Z,13.70
2023-01-07T17:21:48.701Z,12.87
2023-01-07T17:27:25.473Z,13.40
2023-01-07T17:29:52.324Z,13.20
2023-01-07T17:32:18.994Z,12.30
2023-01-07T17:34:45.646Z,14.97
2023-01-07T17:37:15.425Z,15.87
2023-01-07T17:39:42.385Z,16.60
2023-01-07T17:42:50.192Z,17.77
2023-01-07T17:45:17.854Z,17.80
2023-01-07T17:47:44.646Z,16.50
2023-01-07T17:50:14.721Z,16.77
2023-01-07T17:52:44.883Z,16.87
2023-01-07T17:57:59.902Z,16.53
2023-01-07T18:00:26.987Z,16.60
2023-01-07T18:02:54.999Z,17.23
2023-01-07T18:05:22.464Z,16.23
2023-01-07T18:07:49.387Z,15.50
2023-01-07T18:10:16.644Z,15.63
2023-01-07T18:12:43.744Z,15.57
2023-01-07T18:15:17.921Z,16.57
2023-01-07T18:17:45.103Z,16.43
2023-01-07T18:20:12.073Z,15.37
2023-01-07T18:22:38.910Z,15.67
2023-01-07T18:25:06.136Z,16.60
2023-01-07T18:27:32.771Z,16.30
2023-01-07T18:29:59.372Z,16.57
2023-01-07T18:32:26.001Z,16.37
2023-01-07T18:34:52.613Z,16.07
2023-01-07T18:40:04.418Z,16.07
2023-01-07T18:45:16.476Z,19.33
2023-01-07T18:50:27.593Z,17.83
2023-01-07T18:52:54.209Z,18.57
2023-01-07T18:55:21.067Z,18.47
2023-01-07T18:57:47.711Z,19.40
2023-01-07T19:00:14.651Z,19.53
2023-01-07T19:02:41.313Z,19.30
2023-01-07T19:05:08.302Z,18.60
2023-01-07T19:07:37.572Z,20.93
2023-01-07T19:10:04.531Z,23.37
2023-01-07T19:12:31.220Z,23.20
2023-01-07T19:14:59.993Z,21.90
2023-01-07T19:17:26.615Z,26.60
2023-01-07T19:19:53.275Z,25.33
2023-01-07T19:22:20.348Z,23.67
2023-01-07T19:24:47.054Z,24.57
2023-01-07T19:27:14.717Z,19.83
2023-01-07T19:32:26.966Z,17.53
2023-01-07T19:37:40.459Z,18.10
2023-01-07T19:42:51.617Z,21.70
2023-01-07T19:45:18.286Z,20.87
2023-01-07T19:47:46.753Z,21.70
2023-01-07T19:50:13.466Z,21.43
2023-01-07T19:52:40.188Z,21.33
2023-01-07T19:55:08.244Z,22.17
2023-01-07T19:57:35.027Z,21.77
2023-01-07T20:00:02.142Z,30.97
2023-01-07T20:02:31.520Z,26.17
2023-01-07T20:05:00.978Z,23.13
2023-01-07T20:07:31.521Z,20.53
2023-01-07T20:09:58.143Z,17.77
2023-01-07T20:12:24.886Z,17.37
2023-01-07T20:14:52.272Z,17.53
2023-01-07T20:17:18.884Z,19.40
2023-01-07T20:19:46.320Z,18.53
2023-01-07T20:22:13.011Z,18.67
2023-01-07T20:24:40.115Z,20.97
2023-01-07T20:27:06.929Z,18.20
2023-01-07T20:29:34.018Z,18.50
2023-01-07T20:32:00.691Z,19.27
2023-01-07T20:34:27.422Z,18.57
2023-01-07T20:39:39.738Z,18.37
2023-01-07T20:44:53.548Z,18.40
2023-01-07T20:50:04.551Z,18.77
2023-01-07T20:55:15.367Z,20.57
2023-01-07T20:57:41.951Z,18.50
2023-01-07T21:00:08.962Z,18.60
2023-01-07T21:02:35.717Z,19.17
2023-01-07T21:05:02.815Z,19.57
2023-01-07T21:07:29.454Z,17.63
2023-01-07T21:09:56.560Z,17.00
2023-01-07T21:12:23.229Z,18.40
2023-01-07T21:14:50.241Z,19.57
2023-01-07T21:17:20.274Z,18.73
2023-01-07T21:22:31.073Z,19.70
2023-01-07T21:24:57.840Z,16.93
2023-01-07T21:27:24.811Z,17.97
2023-01-07T21:29:51.417Z,22.67
2023-01-07T21:32:20.630Z,19.67
2023-01-07T21:34:47.260Z,18.60
2023-01-07T21:37:14.442Z,17.80
2023-01-07T21:39:41.498Z,17.77
2023-01-07T21:42:10.117Z,18.83
2023-01-07T21:44:37.313Z,17.83
2023-01-07T21:47:04.615Z,18.57
2023-01-07T21:49:32.531Z,18.53
2023-01-07T21:51:59.260Z,20.83
2023-01-07T21:57:11.519Z,19.00
2023-01-07T21:59:38.630Z,20.37
2023-01-07T22:02:05.586Z,19.70
2023-01-07T22:04:32.543Z,18.57
2023-01-07T22:06:59.551Z,18.70
2023-01-07T22:09:26.249Z,17.77
2023-01-07T22:11:53.720Z,18.40
2023-01-07T22:14:20.810Z,19.50
2023-01-07T22:16:49.224Z,17.10
2023-01-07T22:19:19.774Z,19.00
2023-01-07T22:24:31.004Z,18.50
2023-01-07T22:26:59.465Z,16.37
2023-01-07T22:29:26.175Z,17.00
2023-01-07T22:31:53.925Z,19.93
2023-01-07T22:34:20.675Z,15.87
2023-01-07T22:37:10.608Z,15.90
2023-01-07T22:39:42.587Z,17.70
2023-01-07T22:42:11.471Z,20.87
2023-01-07T22:44:39.806Z,17.07
2023-01-07T22:47:07.155Z,16.17
2023-01-07T22:49:34.428Z,17.43
2023-01-07T22:52:01.391Z,17.43
2023-01-07T22:54:27.991Z,18.00
2023-01-07T22:56:55.096Z,17.40
2023-01-07T22:59:22.248Z,17.43
2023-01-07T23:01:49.033Z,18.37
2023-01-07T23:04:15.626Z,18.40
2023-01-07T23:06:42.289Z,17.73
2023-01-07T23:09:09.421Z,20.83
2023-01-07T23:11:47.810Z,19.27
2023-01-07T23:14:15.358Z,19.23
2023-01-07T23:16:41.970Z,18.90
2023-01-07T23:19:08.616Z,20.80
2023-01-07T23:24:22.037Z,21.20
2023-01-07T23:26:49.444Z,19.20
2023-01-07T23:29:16.230Z,19.20
2023-01-07T23:31:42.842Z,19.53
2023-01-07T23:36:54.479Z,19.27
2023-01-07T23:39:21.747Z,19.23
2023-01-07T23:41:48.425Z,20.90
2023-01-07T23:44:15.196Z,19.53
2023-01-07T23:49:26.307Z,20.47
2023-01-07T23:54:37.645Z,17.97
2023-01-07T23:57:04.248Z,18.73
2023-01-07T23:59:30.896Z,20.03
